createdAt,value
2023-01-23T00:01:33.829Z,12.52
2023-01-23T00:04:00.859Z,14.85
2023-01-23T00:06:27.934Z,14.00
2023-01-23T00:08:56.675Z,11.93
2023-01-23T00:11:26.621Z,16.45
2023-01-23T00:13:53.667Z,13.48
2023-01-23T00:16:22.562Z,13.68
2023-01-23T00:18:50.874Z,11.43
2023-01-23T00:21:23.296Z,13.10
2023-01-23T00:23:54.997Z,13.38
2023-01-23T00:26:25.200Z,12.60
2023-01-23T00:28:53.096Z,13.77
2023-01-23T00:31:26.236Z,13.02
2023-01-23T00:34:14.083Z,14.02
2023-01-23T00:36:42.995Z,13.10
2023-01-23T00:39:16.342Z,9.98
2023-01-23T00:41:43.009Z,13.15
2023-01-23T00:44:09.510Z,11.75
2023-01-23T00:46:36.091Z,10.70
2023-01-23T00:49:03.017Z,11.98
2023-01-23T00:51:29.540Z,12.68
2023-01-23T00:53:56.283Z,12.18
2023-01-23T00:56:22.852Z,11.75
2023-01-23T00:58:49.409Z,12.02
2023-01-23T01:01:17.050Z,13.55
2023-01-23T01:03:43.947Z,11.75
2023-01-23T01:06:11.539Z,11.52
2023-01-23T01:08:38.095Z,11.52
2023-01-23T01:11:04.778Z,12.93
2023-01-23T01:13:31.402Z,12.95
2023-01-23T01:15:58.180Z,12.43
2023-01-23T01:18:24.762Z,11.32
2023-01-23T01:20:51.410Z,13.20
2023-01-23T01:23:19.105Z,11.52
2023-01-23T01:25:46.193Z,10.27
2023-01-23T01:28:13.689Z,11.05
2023-01-23T01:30:41.052Z,10.15
2023-01-23T01:33:07.888Z,11.88
2023-01-23T01:35:34.448Z,11.35
2023-01-23T01:38:01.081Z,11.40
2023-01-23T01:40:32.506Z,10.75
2023-01-23T01:43:08.435Z,8.82
2023-01-23T01:46:09.132Z,10.50
2023-01-23T01:48:47.711Z,11.15
2023-01-23T01:51:29.821Z,12.23
2023-01-23T01:54:10.104Z,10.82
2023-01-23T01:57:08.894Z,10.10
2023-01-23T01:59:40.795Z,11.65
2023-01-23T02:02:18.287Z,10.32
2023-01-23T02:04:48.501Z,10.32
2023-01-23T02:07:22.914Z,10.10
2023-01-23T02:09:50.115Z,9.07
2023-01-23T02:12:16.824Z,10.15
2023-01-23T02:14:43.675Z,10.52
2023-01-23T02:17:10.921Z,9.57
2023-01-23T02:20:03.754Z,9.98
2023-01-23T02:22:47.865Z,8.98
2023-01-23T02:27:40.852Z,10.15
2023-01-23T02:30:08.619Z,11.40
2023-01-23T02:32:37.943Z,9.75
2023-01-23T02:35:14.008Z,9.43
2023-01-23T02:37:45.647Z,9.90
2023-01-23T02:40:12.959Z,8.57
2023-01-23T02:42:42.998Z,9.75
2023-01-23T02:45:09.861Z,8.07
2023-01-23T02:47:36.693Z,8.63
2023-01-23T02:50:03.305Z,8.82
2023-01-23T02:52:31.909Z,9.55
2023-01-23T02:54:58.437Z,9.95
2023-01-23T02:57:24.929Z,7.10
2023-01-23T03:00:14.210Z,8.23
2023-01-23T03:02:40.783Z,9.40
2023-01-23T03:05:07.889Z,8.88
2023-01-23T03:07:35.844Z,10.00
2023-01-23T03:10:04.240Z,8.43
2023-01-23T03:12:30.728Z,7.00
2023-01-23T03:14:58.723Z,7.18
2023-01-23T03:17:25.652Z,8.85
2023-01-23T03:19:52.221Z,7.97
2023-01-23T03:22:18.784Z,6.80
2023-01-23T03:24:45.292Z,7.40
2023-01-23T03:27:12.843Z,6.57
2023-01-23T03:29:58.067Z,7.88
2023-01-23T03:32:26.062Z,8.70
2023-01-23T03:34:52.608Z,7.47
2023-01-23T03:37:19.724Z,7.93
2023-01-23T03:40:05.205Z,6.25
2023-01-23T03:42:34.584Z,6.53
2023-01-23T03:45:01.379Z,7.82
2023-01-23T03:47:27.911Z,6.97
2023-01-23T03:49:54.457Z,7.25
2023-01-23T03:52:21.054Z,7.07
2023-01-23T03:54:47.562Z,8.13
2023-01-23T03:57:14.091Z,7.22
2023-01-23T03:59:40.658Z,6.20
2023-01-23T04:02:07.213Z,8.43
2023-01-23T04:04:34.639Z,7.65
2023-01-23T04:07:01.245Z,6.88
2023-01-23T04:09:28.231Z,7.63
2023-01-23T04:11:55.600Z,8.43
2023-01-23T04:14:23.474Z,6.57
2023-01-23T04:16:50.386Z,8.02
2023-01-23T04:19:20.901Z,6.80
2023-01-23T04:21:48.974Z,6.28
2023-01-23T04:24:17.133Z,6.03
2023-01-23T04:26:43.790Z,4.97
2023-01-23T04:29:10.608Z,5.82
2023-01-23T04:31:37.295Z,7.72
2023-01-23T04:34:04.101Z,6.88
2023-01-23T04:36:30.709Z,6.72
2023-01-23T04:38:57.262Z,5.85
2023-01-23T04:41:26.738Z,6.38
2023-01-23T04:43:53.286Z,5.07
2023-01-23T04:46:20.158Z,6.00
2023-01-23T04:48:48.850Z,6.78
2023-01-23T04:51:15.608Z,6.57
2023-01-23T04:53:42.135Z,5.97
2023-01-23T04:56:08.638Z,6.85
2023-01-23T04:58:35.110Z,6.20
2023-01-23T05:01:06.663Z,6.88
2023-01-23T05:03:34.856Z,4.50
2023-01-23T05:06:01.482Z,5.38
2023-01-23T05:08:27.995Z,5.15
2023-01-23T05:10:54.742Z,5.13
2023-01-23T05:13:21.247Z,4.93
2023-01-23T05:15:47.823Z,5.20
2023-01-23T05:18:14.362Z,6.30
2023-01-23T05:20:40.885Z,4.05
2023-01-23T05:23:07.369Z,5.38
2023-01-23T05:25:33.902Z,7.47
2023-01-23T05:28:00.514Z,5.43
2023-01-23T05:30:27.101Z,5.55
2023-01-23T05:32:53.640Z,5.15
2023-01-23T05:35:20.330Z,5.47
2023-01-23T05:37:51.568Z,5.35
2023-01-23T05:40:18.945Z,4.75
2023-01-23T05:42:46.401Z,5.93
2023-01-23T05:45:12.987Z,5.10
2023-01-23T05:47:39.990Z,5.20
2023-01-23T05:50:08.062Z,4.65
2023-01-23T05:52:35.425Z,6.05
2023-01-23T05:55:02.081Z,5.38
2023-01-23T05:57:28.563Z,4.80
2023-01-23T05:59:55.101Z,5.18
2023-01-23T06:02:21.701Z,5.22
2023-01-23T06:04:49.126Z,4.53
2023-01-23T06:07:17.819Z,6.50
2023-01-23T06:09:44.876Z,4.53
2023-01-23T06:12:12.085Z,4.20
2023-01-23T06:14:39.487Z,5.30
2023-01-23T06:17:06.982Z,4.63
2023-01-23T06:19:33.732Z,4.38
2023-01-23T06:22:00.262Z,5.50
2023-01-23T06:24:26.792Z,4.45
2023-01-23T06:26:53.295Z,4.82
2023-01-23T06:29:19.871Z,5.03
2023-01-23T06:31:47.565Z,4.95
2023-01-23T06:34:15.345Z,4.50
2023-01-23T06:36:42.425Z,3.97
2023-01-23T06:39:13.193Z,4.50
2023-01-23T06:41:39.729Z,4.63
2023-01-23T06:44:07.732Z,3.58
2023-01-23T06:46:34.489Z,3.97
2023-01-23T06:49:01.039Z,3.33
2023-01-23T06:51:27.781Z,4.03
2023-01-23T06:53:54.394Z,5.45
2023-01-23T06:56:21.041Z,3.85
2023-01-23T06:58:48.689Z,3.42
2023-01-23T07:01:18.450Z,4.82
2023-01-23T07:03:45.606Z,3.65
2023-01-23T07:06:14.144Z,5.78
2023-01-23T07:08:41.290Z,5.43
2023-01-23T07:11:08.732Z,4.13
2023-01-23T07:13:35.568Z,3.53
2023-01-23T07:16:02.726Z,3.53
2023-01-23T07:18:30.590Z,4.68
2023-01-23T07:20:57.161Z,3.30
2023-01-23T07:23:23.773Z,4.20
2023-01-23T07:25:50.486Z,3.70
2023-01-23T07:28:17.024Z,3.78
2023-01-23T07:30:43.729Z,3.40
2023-01-23T07:33:11.587Z,3.42
2023-01-23T07:35:39.202Z,3.67
2023-01-23T07:38:05.723Z,2.95
2023-01-23T07:40:32.226Z,3.60
2023-01-23T07:42:58.832Z,3.55
2023-01-23T07:45:26.114Z,3.55
2023-01-23T07:47:52.603Z,4.47
2023-01-23T07:50:19.421Z,5.30
2023-01-23T07:52:46.094Z,3.33
2023-01-23T07:55:12.576Z,2.53
2023-01-23T07:57:39.397Z,3.10
2023-01-23T08:00:06.463Z,3.53
2023-01-23T08:02:32.971Z,3.95
2023-01-23T08:04:59.489Z,2.80
2023-01-23T08:07:25.994Z,2.95
2023-01-23T08:09:52.557Z,3.05
2023-01-23T08:12:19.095Z,4.63
2023-01-23T08:14:47.411Z,2.90
2023-01-23T08:17:14.184Z,2.75
2023-01-23T08:19:40.748Z,3.38
2023-01-23T08:22:07.273Z,2.72
2023-01-23T08:24:33.806Z,3.40
2023-01-23T08:27:00.337Z,3.88
2023-01-23T08:29:27.303Z,3.53
2023-01-23T08:31:55.072Z,3.90
2023-01-23T08:34:21.981Z,3.20
2023-01-23T08:36:48.664Z,4.13
2023-01-23T08:39:16.863Z,3.92
2023-01-23T08:41:43.422Z,3.08
2023-01-23T08:44:09.919Z,3.83
2023-01-23T08:46:36.497Z,3.72
2023-01-23T08:49:04.850Z,3.50
2023-01-23T08:51:31.685Z,3.28
2023-01-23T08:53:58.269Z,4.80
2023-01-23T08:56:25.616Z,3.83
2023-01-23T08:58:52.276Z,4.75
2023-01-23T09:01:24.847Z,3.75
2023-01-23T09:03:51.687Z,4.82
2023-01-23T09:06:20.335Z,5.80
2023-01-23T09:08:47.623Z,5.78
2023-01-23T09:11:15.407Z,5.47
2023-01-23T09:13:42.423Z,3.85
2023-01-23T09:16:09.484Z,4.47
2023-01-23T09:18:36.549Z,5.72
2023-01-23T09:21:08.961Z,4.35
2023-01-23T09:23:35.600Z,5.72
2023-01-23T09:26:06.187Z,4.60
2023-01-23T09:28:32.988Z,5.47
2023-01-23T09:31:03.993Z,5.63
2023-01-23T09:33:30.662Z,7.47
2023-01-23T09:35:57.759Z,4.18
2023-01-23T09:38:24.241Z,4.57
2023-01-23T09:40:57.870Z,6.75
2023-01-23T09:43:29.640Z,6.32
2023-01-23T09:46:44.183Z,5.05
2023-01-23T09:49:17.154Z,6.10
2023-01-23T09:51:54.555Z,6.00
2023-01-23T09:54:40.693Z,5.88
2023-01-23T09:57:19.543Z,4.85
2023-01-23T10:00:00.069Z,4.95
2023-01-23T10:02:27.953Z,6.22
2023-01-23T10:04:56.531Z,9.73
2023-01-23T10:07:38.439Z,5.22
2023-01-23T10:10:38.893Z,5.75
2023-01-23T10:13:36.601Z,7.97
2023-01-23T10:16:12.526Z,6.18
2023-01-23T10:18:48.353Z,7.78
2023-01-23T10:21:28.420Z,9.00
2023-01-23T10:24:04.634Z,7.90
2023-01-23T10:26:44.718Z,8.35
2023-01-23T10:29:56.671Z,7.25
2023-01-23T10:32:29.092Z,6.28
2023-01-23T10:35:16.416Z,5.85
2023-01-23T10:37:50.820Z,6.18
2023-01-23T10:40:39.611Z,7.38
2023-01-23T10:43:18.176Z,6.15
2023-01-23T10:45:46.827Z,6.13
2023-01-23T10:48:40.204Z,7.90
2023-01-23T10:51:37.735Z,7.85
2023-01-23T10:54:31.209Z,7.13
2023-01-23T10:59:48.632Z,7.68
2023-01-23T11:02:15.816Z,8.82
2023-01-23T11:04:44.607Z,13.73
2023-01-23T11:07:22.413Z,9.88
2023-01-23T11:10:04.518Z,12.13
2023-01-23T11:12:34.191Z,12.52
2023-01-23T11:15:24.435Z,11.93
2023-01-23T11:17:53.515Z,12.07
2023-01-23T11:20:33.450Z,11.48
2023-01-23T11:23:03.171Z,15.05
2023-01-23T11:25:33.678Z,16.23
2023-01-23T11:28:35.517Z,16.20
2023-01-23T11:31:17.791Z,15.98
2023-01-23T11:34:03.085Z,15.23
2023-01-23T11:36:33.963Z,16.50
2023-01-23T11:39:13.322Z,16.48
2023-01-23T11:41:40.175Z,18.20
2023-01-23T11:44:18.403Z,17.08
2023-01-23T11:47:08.507Z,18.92
2023-01-23T11:50:11.748Z,15.27
2023-01-23T11:52:50.091Z,16.60
2023-01-23T11:55:50.589Z,15.40
2023-01-23T11:58:39.677Z,16.38
2023-01-23T12:01:16.202Z,17.05
2023-01-23T12:04:04.376Z,18.60
2023-01-23T12:06:47.431Z,16.17
2023-01-23T12:09:16.718Z,18.95
2023-01-23T12:12:12.046Z,20.20
2023-01-23T12:15:01.716Z,16.80
2023-01-23T12:17:38.120Z,17.60
2023-01-23T12:20:42.246Z,18.50
2023-01-23T12:23:37.834Z,17.38
2023-01-23T12:26:15.397Z,18.30
2023-01-23T12:28:47.857Z,19.30
2023-01-23T12:31:43.533Z,20.45
2023-01-23T12:34:25.423Z,20.20
2023-01-23T12:37:31.141Z,20.42
2023-01-23T12:40:15.681Z,18.67
2023-01-23T12:43:04.713Z,21.38
2023-01-23T12:45:32.814Z,19.67
2023-01-23T12:48:02.325Z,17.75
2023-01-23T12:50:47.599Z,19.15
2023-01-23T12:53:17.456Z,20.42
2023-01-23T12:55:59.318Z,20.88
2023-01-23T12:58:30.331Z,21.20
2023-01-23T13:01:04.860Z,21.15
2023-01-23T13:03:56.593Z,19.88
2023-01-23T13:06:40.685Z,19.38
2023-01-23T13:09:45.069Z,20.33
2023-01-23T13:12:28.564Z,22.50
2023-01-23T13:15:22.691Z,21.52
2023-01-23T13:17:56.970Z,23.00
2023-01-23T13:20:53.813Z,20.02
2023-01-23T13:23:33.398Z,19.75
2023-01-23T13:26:15.078Z,19.70
2023-01-23T13:28:57.789Z,22.90
2023-01-23T13:31:34.352Z,22.17
2023-01-23T13:34:14.917Z,21.63
2023-01-23T13:36:43.002Z,21.42
2023-01-23T13:39:18.281Z,21.67
2023-01-23T13:41:49.689Z,21.85
2023-01-23T13:44:24.812Z,23.75
2023-01-23T14:24:47.661Z,25.52
2023-01-23T14:27:36.827Z,27.33
2023-01-23T14:30:17.745Z,26.02
2023-01-23T14:32:45.986Z,22.83
2023-01-23T14:35:19.766Z,22.77
2023-01-23T14:37:47.015Z,24.13
2023-01-23T14:40:26.718Z,23.13
2023-01-23T14:42:59.861Z,21.83
2023-01-23T14:45:31.417Z,23.83
2023-01-23T14:48:05.590Z,22.67
2023-01-23T14:53:16.549Z,22.98
2023-01-23T14:55:47.245Z,23.30
2023-01-23T14:58:22.372Z,23.80
2023-01-23T15:00:50.091Z,22.02
2023-01-23T15:03:41.271Z,21.67
2023-01-23T15:06:12.732Z,22.80
2023-01-23T15:08:39.536Z,21.88
2023-01-23T15:11:11.828Z,21.50
2023-01-23T15:13:45.598Z,21.45
2023-01-23T15:18:54.840Z,19.33
2023-01-23T15:21:33.489Z,21.85
2023-01-23T15:24:28.019Z,20.73
2023-01-23T15:26:59.139Z,19.38
2023-01-23T15:29:27.226Z,18.95
2023-01-23T15:31:58.733Z,23.48
2023-01-23T15:34:28.785Z,23.02
2023-01-23T15:37:20.202Z,21.20
2023-01-23T15:39:46.676Z,19.05
2023-01-23T15:42:13.192Z,20.30
2023-01-23T15:44:41.153Z,21.40
2023-01-23T15:47:07.855Z,19.20
2023-01-23T15:49:37.581Z,19.83
2023-01-23T15:52:23.097Z,18.98
2023-01-23T15:55:00.116Z,18.52
2023-01-23T15:57:26.834Z,19.50
2023-01-23T15:59:53.339Z,18.35
2023-01-23T16:02:30.597Z,18.90
2023-01-23T16:04:58.737Z,18.63
2023-01-23T16:07:32.353Z,19.63
2023-01-23T16:09:58.878Z,18.95
2023-01-23T16:12:29.159Z,20.63
2023-01-23T16:14:56.374Z,18.33
2023-01-23T16:17:23.349Z,18.92
2023-01-23T16:19:50.711Z,17.10
2023-01-23T16:22:29.091Z,19.27
2023-01-23T16:24:57.149Z,18.10
2023-01-23T16:27:27.445Z,17.00
2023-01-23T16:29:55.143Z,16.25
2023-01-23T16:32:21.778Z,15.98
2023-01-23T16:34:48.656Z,16.77
2023-01-23T16:37:17.369Z,17.45
2023-01-23T16:39:46.154Z,15.18
2023-01-23T16:42:24.971Z,17.80
2023-01-23T16:44:51.657Z,18.13
2023-01-23T16:47:18.542Z,17.15
2023-01-23T16:49:54.056Z,15.70
2023-01-23T16:52:24.157Z,18.25
2023-01-23T16:54:53.293Z,18.33
2023-01-23T16:57:21.198Z,16.27
2023-01-23T16:59:49.077Z,15.70
2023-01-23T17:02:30.262Z,20.05
2023-01-23T17:04:56.999Z,17.33
2023-01-23T17:07:23.629Z,16.77
2023-01-23T17:09:51.613Z,18.15
2023-01-23T17:12:22.690Z,17.67
2023-01-23T17:14:52.489Z,15.75
2023-01-23T17:17:34.263Z,15.13
2023-01-23T17:20:05.659Z,16.38
2023-01-23T17:22:38.285Z,15.07
2023-01-23T17:25:17.117Z,17.55
2023-01-23T17:27:45.788Z,14.32
2023-01-23T17:30:19.588Z,16.77
2023-01-23T17:32:49.014Z,14.10
2023-01-23T17:35:31.448Z,15.18
2023-01-23T17:37:58.040Z,15.82
2023-01-23T17:40:24.738Z,15.00
2023-01-23T17:42:51.632Z,15.05
2023-01-23T17:45:20.621Z,14.35
2023-01-23T17:47:50.159Z,15.60
2023-01-23T17:50:22.552Z,15.88
2023-01-23T17:52:50.276Z,14.85
2023-01-23T17:55:28.248Z,15.18
2023-01-23T17:57:54.864Z,13.93
2023-01-23T18:00:21.983Z,14.48
2023-01-23T18:02:56.150Z,14.20
2023-01-23T18:05:22.929Z,16.02
2023-01-23T18:07:54.027Z,15.77
2023-01-23T18:10:22.067Z,14.82
2023-01-23T18:13:09.242Z,14.98
2023-01-23T18:16:08.197Z,14.98
2023-01-23T18:18:40.364Z,14.35
2023-01-23T18:21:15.420Z,13.68
2023-01-23T18:23:42.495Z,14.68
2023-01-23T18:26:22.370Z,12.65
2023-01-23T18:28:52.351Z,14.73
2023-01-23T18:31:38.870Z,13.68
2023-01-23T18:34:53.346Z,13.25
2023-01-23T18:37:29.590Z,12.82
2023-01-23T18:40:03.709Z,12.63
2023-01-23T18:43:05.090Z,13.98
2023-01-23T18:45:32.262Z,13.38
2023-01-23T18:47:59.155Z,13.18
2023-01-23T18:50:27.049Z,14.25
2023-01-23T18:53:26.491Z,14.45
2023-01-23T18:56:14.199Z,14.20
2023-01-23T18:59:10.337Z,15.10
2023-01-23T19:01:38.033Z,12.77
2023-01-23T19:04:13.022Z,12.25
2023-01-23T19:06:41.001Z,12.73
2023-01-23T19:09:17.796Z,13.80
2023-01-23T19:12:28.615Z,14.00
2023-01-23T19:15:22.090Z,12.63
2023-01-23T19:18:14.213Z,14.15
2023-01-23T19:20:50.678Z,12.75
2023-01-23T19:23:42.312Z,11.32
2023-01-23T19:26:14.020Z,13.60
2023-01-23T19:28:40.768Z,12.05
2023-01-23T19:31:09.828Z,13.07
2023-01-23T19:33:36.676Z,12.45
2023-01-23T19:36:04.016Z,11.90
2023-01-23T19:38:30.555Z,12.65
2023-01-23T19:40:57.163Z,11.95
2023-01-23T19:43:23.698Z,10.88
2023-01-23T19:45:50.257Z,12.43
2023-01-23T19:48:16.750Z,12.10
2023-01-23T19:50:44.132Z,11.60
2023-01-23T19:53:14.329Z,11.20
2023-01-23T19:55:41.209Z,13.55
2023-01-23T19:58:08.171Z,11.20
2023-01-23T20:00:36.203Z,11.80
2023-01-23T20:03:04.918Z,11.93
2023-01-23T20:05:32.076Z,12.30
2023-01-23T20:07:58.797Z,10.90
2023-01-23T20:10:25.403Z,11.43
2023-01-23T20:12:52.435Z,11.82
2023-01-23T20:15:21.585Z,11.05
2023-01-23T20:17:48.407Z,12.77
2023-01-23T20:20:15.466Z,11.45
2023-01-23T20:22:43.248Z,10.32
2023-01-23T20:25:13.051Z,10.50
2023-01-23T20:27:40.089Z,9.55
2023-01-23T20:30:09.527Z,10.48
2023-01-23T20:32:36.195Z,10.77
2023-01-23T20:35:02.756Z,12.38
2023-01-23T20:37:29.434Z,11.50
2023-01-23T20:39:56.066Z,11.00
2023-01-23T20:42:22.701Z,10.43
2023-01-23T20:44:49.336Z,9.40
2023-01-23T20:47:15.948Z,11.50
2023-01-23T20:49:42.522Z,11.02
2023-01-23T20:52:27.623Z,11.57
2023-01-23T20:54:54.122Z,10.40
2023-01-23T20:57:20.649Z,10.73
2023-01-23T20:59:47.693Z,9.68
2023-01-23T21:02:23.236Z,10.52
2023-01-23T21:04:50.517Z,9.98
2023-01-23T21:07:17.756Z,10.82
2023-01-23T21:09:45.479Z,10.27
2023-01-23T21:12:12.351Z,10.35
2023-01-23T21:14:38.948Z,10.85
2023-01-23T21:17:06.369Z,9.88
2023-01-23T21:19:33.712Z,10.65
2023-01-23T21:22:00.201Z,11.95
2023-01-23T21:24:26.774Z,11.07
2023-01-23T21:26:53.328Z,11.25
2023-01-23T21:29:19.854Z,12.65
2023-01-23T21:31:46.696Z,14.40
2023-01-23T21:34:14.263Z,13.80
2023-01-23T21:36:42.573Z,13.10
2023-01-23T21:39:12.763Z,13.15
2023-01-23T21:41:39.378Z,14.20
2023-01-23T21:44:05.925Z,14.10
2023-01-23T21:46:32.491Z,12.98
2023-01-23T21:48:59.067Z,14.38
2023-01-23T21:51:27.621Z,13.88
2023-01-23T21:53:54.321Z,14.05
2023-01-23T21:56:22.978Z,13.52
2023-01-23T21:58:49.696Z,12.75
2023-01-23T22:01:42.039Z,13.27
2023-01-23T22:04:14.348Z,12.75
2023-01-23T22:06:42.825Z,14.43
2023-01-23T22:09:13.773Z,16.27
2023-01-23T22:11:40.476Z,13.68
2023-01-23T22:14:07.175Z,14.77
2023-01-23T22:16:47.430Z,13.80
2023-01-23T22:19:17.213Z,12.50
2023-01-23T22:21:46.111Z,14.02
2023-01-23T22:24:12.798Z,13.80
2023-01-23T22:26:39.376Z,14.23
2023-01-23T22:29:05.898Z,12.50
2023-01-23T22:31:32.499Z,14.68
2023-01-23T22:33:59.059Z,14.77
2023-01-23T22:36:25.744Z,13.98
2023-01-23T22:38:54.075Z,13.88
2023-01-23T22:41:21.349Z,15.27
2023-01-23T22:43:53.620Z,13.48
2023-01-23T22:46:20.282Z,15.90
2023-01-23T22:48:46.789Z,12.52
2023-01-23T22:51:24.164Z,11.60
2023-01-23T22:53:51.171Z,12.52
2023-01-23T22:56:17.671Z,12.98
2023-01-23T22:58:48.453Z,13.45
2023-01-23T23:01:15.498Z,13.60
2023-01-23T23:03:42.467Z,13.00
2023-01-23T23:06:12.385Z,13.82
2023-01-23T23:08:39.185Z,12.82
2023-01-23T23:11:32.635Z,13.73
2023-01-23T23:13:59.137Z,13.27
2023-01-23T23:16:31.367Z,14.63
2023-01-23T23:19:01.377Z,11.13
2023-01-23T23:21:31.826Z,12.82
2023-01-23T23:23:59.943Z,14.90
2023-01-23T23:26:28.441Z,14.48
2023-01-23T23:28:55.771Z,14.35
2023-01-23T23:31:22.418Z,12.68
2023-01-23T23:33:49.200Z,11.27
2023-01-23T23:36:15.859Z,11.65
2023-01-23T23:38:42.362Z,12.43
2023-01-23T23:41:12.784Z,13.20
2023-01-23T23:43:39.331Z,12.48
2023-01-23T23:46:07.906Z,12.75
2023-01-23T23:48:37.081Z,13.25
2023-01-23T23:51:08.684Z,11.65
2023-01-23T23:53:36.113Z,14.02
2023-01-23T23:56:03.441Z,13.13
2023-01-23T23:58:30.174Z,11.60
